Airfield :
LOGIN :

Register | Disclaimer

   EN    FR    IT 

 










Legend :    VFR   Marginal VFR   IFR   Intensive IFR   Very Intensive IFR
Visi :
Ceiling :
>= 8 km
>= 3000ft
5 to 8 km
1000 to 3000 ft
1500m to 5 km
500 to 1000 ft
800 to 1500m
200 to 500 ft
< 800m
< 200 ft
Symbols :   Thunderstorms  Fog  Heavy snow  Heavy precipitations  Wind > 20 kt
SIGMETs :     Misc.  Thunderstorms  Icing  Turbulence  Mountain Waves  Volcanic Ashes






- Airport Elevation : 26 ft
- IATA code : SYY


EGPO - Stornoway

CURRENT METAR :
  • 072250Z AUTO 21017KT 5000 -RA SCT018/// BKN024/// BKN028/// 08/07 Q1018

EXPIRED METARs :
  • 072220Z AUTO 21016KT 9999 -RA SCT023/// BKN028/// BKN034/// 08/06 Q1018
  • 072150Z AUTO 21018KT 9999 -RA SCT025/// BKN034/// BKN046/// 09/06 Q1018
  • 072120Z AUTO 21020KT 9999 -RA SCT025/// BKN031/// BKN040/// 08/06 Q1018
  • 072050Z AUTO 21021KT 9999 -RA SCT027/// BKN032/// BKN039/// 08/06 Q1018
  • 072020Z AUTO 21019KT 9999 -RA SCT026/// BKN032/// BKN040/// 08/06 Q1018

TAF TAF EGPO
Valid from the 07 at 21:00 until the 08 at 06:00 UTC


071959Z 0721/0806 20019KT 9999 FEW030
TEMPO 0721/0806 6000 RADZ BKN010
TEMPO 0721/0802 21025G35KT
PROB40
TEMPO 0722/0803 3000 DZRA BKN004
BECMG 0802/0805 32009KT
ATIS : +44 1851 707 444



MET'MAP, your aeronautical weather chart ! - Copyright ORBIFLY December 2007 - Disclaimer

ORBIFLY MET'MAP TEAM :

Programming & Development : Alexandra Zaïnal
Concept & original design : Baudouin d'Aumeries
Assistance for programming : Marc-Olivier Méhu
Technical & hardware support : Manuel Goepfert

Contact : metmap@orbifly.com




SOURCES & CREDITS :

   NOAA